createdAt,value
2016-08-15T00:00:04.411Z,74.7
2016-08-15T00:00:15.650Z,74.8
2016-08-15T00:00:26.890Z,75
2016-08-15T00:00:38.139Z,75.1
2016-08-15T00:00:49.381Z,74.6
2016-08-15T00:01:00.621Z,74.5
2016-08-15T00:01:11.865Z,75
2016-08-15T00:01:23.122Z,75
2016-08-15T00:01:34.369Z,74.5
2016-08-15T00:01:45.608Z,74.6
2016-08-15T00:01:56.851Z,74.5
2016-08-15T00:02:08.089Z,74.1
2016-08-15T00:02:20.398Z,74.7
2016-08-15T00:02:31.636Z,74.4
2016-08-15T00:02:42.157Z,74.6
2016-08-15T00:02:53.395Z,74.5
2016-08-15T00:03:04.633Z,74.3
2016-08-15T00:03:15.879Z,74.5
2016-08-15T00:03:27.119Z,74.5
2016-08-15T00:03:38.361Z,74.4
2016-08-15T00:03:49.601Z,74.6
2016-08-15T00:04:00.842Z,74.7
2016-08-15T00:04:12.081Z,74.7
2016-08-15T00:04:23.323Z,74.4
2016-08-15T00:04:33.828Z,74.4
2016-08-15T00:04:44.344Z,74.5
2016-08-15T00:04:55.579Z,74.5
2016-08-15T00:05:06.819Z,74.2
2016-08-15T00:05:18.060Z,74.1
2016-08-15T00:05:29.298Z,74
2016-08-15T00:05:40.542Z,74.7
2016-08-15T00:05:51.779Z,74.6
2016-08-15T00:06:03.028Z,74.7
2016-08-15T00:06:14.268Z,74.4
2016-08-15T00:06:25.505Z,74.1
2016-08-15T00:06:36.743Z,74
2016-08-15T00:06:47.994Z,74.1
2016-08-15T00:06:59.236Z,74.3
2016-08-15T00:07:10.486Z,74.7
2016-08-15T00:07:21.730Z,74.4
2016-08-15T00:07:32.969Z,74.6
2016-08-15T00:07:44.211Z,74.7
2016-08-15T00:07:55.451Z,74.5
2016-08-15T00:08:06.693Z,74.4
2016-08-15T00:08:17.959Z,74.5
2016-08-15T00:08:29.200Z,74.4
2016-08-15T00:08:40.446Z,74.8
2016-08-15T00:08:51.682Z,74.5
2016-08-15T00:09:02.188Z,74.7
2016-08-15T00:09:13.428Z,74
2016-08-15T00:09:24.666Z,74.4
2016-08-15T00:09:35.176Z,74.5
2016-08-15T00:09:46.415Z,74.4
2016-08-15T00:09:57.656Z,74.5
2016-08-15T00:10:08.900Z,74.7
2016-08-15T00:10:20.145Z,74.7
2016-08-15T00:10:31.391Z,74.7
2016-08-15T00:10:42.631Z,74
2016-08-15T00:10:53.870Z,74.2
2016-08-15T00:11:04.381Z,74
2016-08-15T00:11:15.622Z,74.2
2016-08-15T00:11:26.870Z,74.7
2016-08-15T00:11:39.182Z,74.7
2016-08-15T00:11:50.424Z,74.4
2016-08-15T00:12:01.661Z,74.4
2016-08-15T00:12:12.906Z,74.4
2016-08-15T00:12:24.149Z,74.6
2016-08-15T00:12:35.385Z,74.4
2016-08-15T00:12:46.628Z,74.4
2016-08-15T00:12:57.868Z,74.8
2016-08-15T00:13:09.107Z,74.7
2016-08-15T00:13:20.345Z,74.4
2016-08-15T00:13:31.586Z,74.6
2016-08-15T00:13:42.824Z,74.2
2016-08-15T00:13:54.070Z,73.8
2016-08-15T00:14:05.316Z,73.9
2016-08-15T00:14:15.825Z,74.1
2016-08-15T00:14:27.065Z,74.1
2016-08-15T00:14:38.311Z,74.8
2016-08-15T00:14:48.820Z,74.7
2016-08-15T00:15:00.058Z,74.4
2016-08-15T00:15:11.297Z,74.6
2016-08-15T00:15:21.811Z,74.5
2016-08-15T00:15:33.054Z,74.5
2016-08-15T00:15:43.568Z,74.4
2016-08-15T00:15:54.807Z,74.2
2016-08-15T00:16:06.048Z,74.4
2016-08-15T00:16:16.609Z,74.2
2016-08-15T00:16:27.848Z,74.2
2016-08-15T00:16:39.100Z,74.5
2016-08-15T00:16:48.870Z,74.6
2016-08-15T00:17:01.905Z,74.2
2016-08-15T00:17:13.150Z,74.1
2016-08-15T00:17:23.656Z,74
2016-08-15T00:17:34.898Z,74.1
2016-08-15T00:17:46.136Z,74
2016-08-15T00:17:57.374Z,74.1
2016-08-15T00:18:08.616Z,74.2
2016-08-15T00:18:19.849Z,74.7
2016-08-15T00:18:30.358Z,73.8
2016-08-15T00:18:41.600Z,74
2016-08-15T00:18:52.120Z,73.9
2016-08-15T00:19:03.357Z,73.9
2016-08-15T00:19:14.603Z,73.9
2016-08-15T00:19:25.842Z,74
2016-08-15T00:19:37.083Z,73.9
2016-08-15T00:19:48.328Z,74
2016-08-15T00:19:59.567Z,74.2
2016-08-15T00:20:10.809Z,74.7
2016-08-15T00:20:22.052Z,74.1
2016-08-15T00:20:33.293Z,74.2
2016-08-15T00:20:44.531Z,74.7
2016-08-15T00:20:55.771Z,74.6
2016-08-15T00:21:07.009Z,74.2
2016-08-15T00:21:18.249Z,74.7
2016-08-15T00:21:29.489Z,74.4
2016-08-15T00:21:40.726Z,74.1
2016-08-15T00:21:51.972Z,74.2
2016-08-15T00:22:03.208Z,74.6
2016-08-15T00:22:14.444Z,74.5
2016-08-15T00:22:25.691Z,74.5
2016-08-15T00:22:36.926Z,74.5
2016-08-15T00:22:48.169Z,74.6
2016-08-15T00:22:59.409Z,74.7
2016-08-15T00:23:10.649Z,74.7
2016-08-15T00:23:21.889Z,74.6
2016-08-15T00:23:33.127Z,74.4
2016-08-15T00:23:44.366Z,74.4
2016-08-15T00:23:55.606Z,74.4
2016-08-15T00:24:06.848Z,74.5
2016-08-15T00:24:18.086Z,74.7
2016-08-15T00:24:29.323Z,74.3
2016-08-15T00:24:40.566Z,74.2
2016-08-15T00:24:51.804Z,75
2016-08-15T00:25:03.044Z,74.9
2016-08-15T00:25:14.290Z,74.9
2016-08-15T00:25:25.529Z,74.7
2016-08-15T00:25:36.041Z,74.8
2016-08-15T00:25:47.290Z,74.5
2016-08-15T00:25:58.531Z,74.6
2016-08-15T00:26:09.767Z,74.7
2016-08-15T00:26:21.010Z,74.8
2016-08-15T00:26:32.250Z,74.8
2016-08-15T00:26:43.491Z,74.6
2016-08-15T00:26:54.002Z,74.4
2016-08-15T00:27:04.516Z,74.6
2016-08-15T00:27:15.762Z,74.3
2016-08-15T00:27:26.275Z,74.5
2016-08-15T00:27:37.512Z,74.7
2016-08-15T00:27:48.757Z,75
2016-08-15T00:27:59.992Z,74.7
2016-08-15T00:28:11.240Z,74.7
2016-08-15T00:28:22.482Z,74.6
2016-08-15T00:28:32.993Z,74.5
2016-08-15T00:28:44.232Z,74.6
2016-08-15T00:28:54.757Z,74.2
2016-08-15T00:29:07.791Z,74.6
2016-08-15T00:29:19.034Z,74.4
2016-08-15T00:29:30.278Z,74.6
2016-08-15T00:29:41.516Z,74.4
2016-08-15T00:29:52.758Z,74.5
2016-08-15T00:30:04.003Z,74.6
2016-08-15T00:30:15.240Z,74.5
2016-08-15T00:30:26.477Z,74.5
2016-08-15T00:30:37.718Z,74.7
2016-08-15T00:30:48.237Z,74.7
2016-08-15T00:30:59.480Z,74.7
2016-08-15T00:31:09.988Z,74.8
2016-08-15T00:31:21.226Z,74.9
2016-08-15T00:31:32.465Z,74.9
2016-08-15T00:31:43.708Z,74.9
2016-08-15T00:31:54.956Z,75
2016-08-15T00:32:06.196Z,75
2016-08-15T00:32:17.436Z,74.8
2016-08-15T00:32:28.676Z,74.8
2016-08-15T00:32:39.190Z,74.8
2016-08-15T00:32:50.434Z,74.8
2016-08-15T00:33:01.676Z,74.9
2016-08-15T00:33:12.919Z,75
2016-08-15T00:33:24.163Z,74.7
2016-08-15T00:33:35.406Z,74.3
2016-08-15T00:33:46.662Z,74.8
2016-08-15T00:33:57.898Z,74.5
2016-08-15T00:34:09.158Z,74.8
2016-08-15T00:34:20.398Z,74.8
2016-08-15T00:34:31.635Z,74.4
2016-08-15T00:34:42.885Z,74.5
2016-08-15T00:34:54.127Z,74.7
2016-08-15T00:35:05.360Z,74.7
2016-08-15T00:35:16.607Z,74.6
2016-08-15T00:35:27.847Z,74.9
2016-08-15T00:35:39.087Z,74.6
2016-08-15T00:35:50.326Z,74.5
2016-08-15T00:36:01.584Z,74.6
2016-08-15T00:36:12.821Z,74.7
2016-08-15T00:36:23.337Z,74.5
2016-08-15T00:36:34.577Z,74.6
2016-08-15T00:36:45.812Z,74.5
2016-08-15T00:36:57.050Z,74.5
2016-08-15T00:37:08.296Z,74.5
2016-08-15T00:37:19.532Z,74.4
2016-08-15T00:37:30.771Z,74.5
2016-08-15T00:37:42.015Z,74.4
2016-08-15T00:37:53.252Z,74.4
2016-08-15T00:38:04.492Z,74.5
2016-08-15T00:38:15.735Z,74.6
2016-08-15T00:38:26.982Z,74.5
2016-08-15T00:38:38.233Z,74.5
2016-08-15T00:38:49.465Z,74.4
2016-08-15T00:39:00.710Z,74.4
2016-08-15T00:39:11.953Z,74.7
2016-08-15T00:39:23.194Z,74
2016-08-15T00:39:34.436Z,74
2016-08-15T00:39:45.676Z,74.1
2016-08-15T00:39:56.917Z,74
2016-08-15T00:40:08.159Z,74
2016-08-15T00:40:19.396Z,74
2016-08-15T00:40:30.643Z,74
2016-08-15T00:40:41.887Z,74
2016-08-15T00:40:53.137Z,74.1
2016-08-15T00:41:04.376Z,74.2
2016-08-15T00:41:15.618Z,74.6
2016-08-15T00:41:26.857Z,73.9
2016-08-15T00:41:37.359Z,74.1
2016-08-15T00:41:48.601Z,74
2016-08-15T00:41:59.842Z,73.9
2016-08-15T00:42:11.083Z,73.8
2016-08-15T00:42:22.320Z,73.7
2016-08-15T00:42:32.832Z,73.9
2016-08-15T00:42:44.069Z,74.1
2016-08-15T00:42:55.309Z,74
2016-08-15T00:43:06.556Z,74.1
2016-08-15T00:43:17.064Z,74.7
2016-08-15T00:43:28.301Z,74.7
2016-08-15T00:43:39.538Z,74
2016-08-15T00:43:50.776Z,74
2016-08-15T00:44:02.025Z,74.1
2016-08-15T00:44:13.272Z,73.9
2016-08-15T00:44:24.517Z,74.2
2016-08-15T00:44:35.755Z,74.4
2016-08-15T00:44:46.997Z,73.9
2016-08-15T00:44:58.259Z,74.1
2016-08-15T00:45:08.757Z,74.1
2016-08-15T00:45:19.997Z,74.1
2016-08-15T00:45:31.238Z,73.9
2016-08-15T00:45:42.474Z,74
2016-08-15T00:45:52.991Z,73.9
2016-08-15T00:46:06.027Z,73.9
2016-08-15T00:46:17.266Z,74
2016-08-15T00:46:28.505Z,73.9
2016-08-15T00:46:39.019Z,74
2016-08-15T00:46:50.264Z,74.1
2016-08-15T00:47:01.505Z,73.9
2016-08-15T00:47:12.015Z,73.8
2016-08-15T00:47:23.251Z,73.9
2016-08-15T00:47:34.493Z,73.9
2016-08-15T00:47:45.732Z,73.9
2016-08-15T00:47:56.976Z,73.6
2016-08-15T00:48:08.214Z,73.8
2016-08-15T00:48:19.460Z,73.9
2016-08-15T00:48:29.968Z,74
2016-08-15T00:48:41.209Z,73.7
2016-08-15T00:48:52.458Z,73.7
2016-08-15T00:49:03.702Z,73.7
2016-08-15T00:49:14.949Z,73.7
2016-08-15T00:49:25.452Z,73.7
2016-08-15T00:49:36.693Z,73.7
2016-08-15T00:49:47.936Z,73.7
2016-08-15T00:49:58.449Z,73.8
2016-08-15T00:50:08.961Z,73.8
2016-08-15T00:50:20.205Z,73.6
2016-08-15T00:50:31.444Z,73.7
2016-08-15T00:50:42.683Z,73.6
2016-08-15T00:50:53.924Z,73.9
2016-08-15T00:51:04.438Z,74
2016-08-15T00:51:15.682Z,73.8
2016-08-15T00:51:26.193Z,73.6
2016-08-15T00:51:37.431Z,73.9
2016-08-15T00:51:48.671Z,73.6
2016-08-15T00:51:59.911Z,73.6
2016-08-15T00:52:11.151Z,73.7
2016-08-15T00:52:22.388Z,73.7
2016-08-15T00:52:33.624Z,73.7
2016-08-15T00:52:44.865Z,73.9
2016-08-15T00:52:56.103Z,73.9
2016-08-15T00:53:07.342Z,73.8
2016-08-15T00:53:18.582Z,73.9
2016-08-15T00:53:29.832Z,73.6
2016-08-15T00:53:40.337Z,73.7
2016-08-15T00:53:51.576Z,73.7
2016-08-15T00:54:02.820Z,73.7
2016-08-15T00:54:14.063Z,73.7
2016-08-15T00:54:25.305Z,73.5
2016-08-15T00:54:35.089Z,73.7
2016-08-15T00:54:46.332Z,73.6
2016-08-15T00:54:56.841Z,73.9
2016-08-15T00:55:08.082Z,73.6
2016-08-15T00:55:19.324Z,73.8
2016-08-15T00:55:30.564Z,73.5
2016-08-15T00:55:41.805Z,73.7
2016-08-15T00:55:53.046Z,74
2016-08-15T00:56:04.282Z,74.1
2016-08-15T00:56:15.524Z,74.1
2016-08-15T00:56:26.039Z,73.7
2016-08-15T00:56:37.279Z,73.3
2016-08-15T00:56:48.518Z,73.8
2016-08-15T00:56:59.754Z,74
2016-08-15T00:57:11.046Z,73.8
2016-08-15T00:57:22.287Z,73.8
2016-08-15T00:57:33.529Z,74.2
2016-08-15T00:57:44.767Z,73.6
2016-08-15T00:57:56.019Z,74.2
2016-08-15T00:58:07.257Z,73.6
2016-08-15T00:58:18.504Z,73.6
2016-08-15T00:58:28.281Z,73.5
2016-08-15T00:58:39.519Z,73.4
2016-08-15T00:58:50.760Z,74
2016-08-15T00:59:02.008Z,73.7
2016-08-15T00:59:13.248Z,73.6
2016-08-15T00:59:24.486Z,73.6
2016-08-15T00:59:35.741Z,73.4
2016-08-15T00:59:46.973Z,73.7
2016-08-15T00:59:58.213Z,73.6
2016-08-15T01:00:09.452Z,73.6
2016-08-15T01:00:19.962Z,73.7
2016-08-15T01:00:30.472Z,73.4
2016-08-15T01:00:41.722Z,74.2
2016-08-15T01:00:52.958Z,73.6
2016-08-15T01:01:04.199Z,74
2016-08-15T01:01:15.438Z,73.9
2016-08-15T01:01:26.678Z,73.9
2016-08-15T01:01:37.924Z,73.9
2016-08-15T01:01:49.163Z,73.9
2016-08-15T01:02:00.405Z,73.5
2016-08-15T01:02:11.648Z,73.7
2016-08-15T01:02:22.887Z,73.7
2016-08-15T01:02:33.399Z,73.6
2016-08-15T01:02:44.641Z,74.1
2016-08-15T01:02:55.877Z,74
2016-08-15T01:03:07.116Z,73.8
2016-08-15T01:03:17.635Z,73.7
2016-08-15T01:03:28.877Z,73.6
2016-08-15T01:03:39.387Z,73.6
2016-08-15T01:03:50.634Z,73.3
2016-08-15T01:04:01.877Z,73.6
2016-08-15T01:04:13.119Z,73.6
2016-08-15T01:04:24.360Z,73.5
2016-08-15T01:04:35.598Z,73.8
2016-08-15T01:04:46.843Z,73.7
2016-08-15T01:04:58.089Z,73.4
2016-08-15T01:05:09.327Z,73.7
2016-08-15T01:05:20.570Z,74
2016-08-15T01:05:31.814Z,73.6
2016-08-15T01:05:43.055Z,73.7
2016-08-15T01:05:53.568Z,74.1
2016-08-15T01:06:04.079Z,73.8
2016-08-15T01:06:15.316Z,73.8
2016-08-15T01:06:26.558Z,74
2016-08-15T01:06:37.800Z,73.8
2016-08-15T01:06:49.060Z,73.7
2016-08-15T01:07:00.300Z,73.8
2016-08-15T01:07:11.538Z,73.8
2016-08-15T01:07:22.776Z,73.6
2016-08-15T01:07:34.022Z,73.6
2016-08-15T01:07:46.335Z,73.7
2016-08-15T01:07:57.569Z,73.5
2016-08-15T01:08:08.084Z,73.5
2016-08-15T01:08:19.332Z,74
2016-08-15T01:08:30.568Z,73.8
2016-08-15T01:08:41.807Z,73.7
2016-08-15T01:08:53.046Z,73.2
2016-08-15T01:09:04.288Z,73.5
2016-08-15T01:09:14.798Z,73.8
2016-08-15T01:09:26.040Z,73.5
2016-08-15T01:09:37.280Z,73.7
2016-08-15T01:09:47.784Z,74
2016-08-15T01:09:58.298Z,73.6
2016-08-15T01:10:09.537Z,73.6
2016-08-15T01:10:20.778Z,73.9
2016-08-15T01:10:32.020Z,73.9
2016-08-15T01:10:43.259Z,74
2016-08-15T01:10:54.499Z,73.9
2016-08-15T01:11:05.740Z,74
2016-08-15T01:11:16.976Z,74
2016-08-15T01:11:28.217Z,73.7
2016-08-15T01:11:39.457Z,73.6
2016-08-15T01:11:50.696Z,73.8
2016-08-15T01:12:01.939Z,73.6
2016-08-15T01:12:13.176Z,73.7
2016-08-15T01:12:24.417Z,74
2016-08-15T01:12:35.655Z,73.9
2016-08-15T01:12:46.898Z,74
2016-08-15T01:12:58.143Z,74
2016-08-15T01:13:09.391Z,73.8
2016-08-15T01:13:20.636Z,74
2016-08-15T01:13:31.876Z,73.8
2016-08-15T01:13:42.392Z,73.9
2016-08-15T01:13:53.635Z,73.8
2016-08-15T01:14:04.873Z,73.6
2016-08-15T01:14:16.111Z,73.7
2016-08-15T01:14:27.355Z,73.6
2016-08-15T01:14:38.594Z,73.8
2016-08-15T01:14:49.836Z,73.8
2016-08-15T01:15:01.084Z,73.5
2016-08-15T01:15:12.322Z,73.5
2016-08-15T01:15:23.563Z,73.6
2016-08-15T01:15:34.080Z,73.6
2016-08-15T01:15:45.322Z,73.6
2016-08-15T01:15:55.830Z,73.6
2016-08-15T01:16:07.073Z,73.7
2016-08-15T01:16:18.318Z,73.7
2016-08-15T01:16:29.558Z,73.4
2016-08-15T01:16:40.801Z,73.7
2016-08-15T01:16:51.317Z,74.1
2016-08-15T01:17:02.567Z,73.6
2016-08-15T01:17:13.809Z,73.8
2016-08-15T01:17:25.048Z,73.8
2016-08-15T01:17:36.287Z,73.5
2016-08-15T01:17:47.531Z,73.5
2016-08-15T01:17:58.771Z,73.6
2016-08-15T01:18:10.011Z,73.9
2016-08-15T01:18:21.258Z,73.6
2016-08-15T01:18:32.500Z,73.7
2016-08-15T01:18:43.740Z,73.6
2016-08-15T01:18:54.980Z,74
2016-08-15T01:19:06.232Z,73.8
2016-08-15T01:19:16.734Z,74
2016-08-15T01:19:27.986Z,74.1
2016-08-15T01:19:39.224Z,73.7
2016-08-15T01:19:50.461Z,73.7
2016-08-15T01:20:01.703Z,73.7
2016-08-15T01:20:12.945Z,73.7
2016-08-15T01:20:24.191Z,73.9
2016-08-15T01:20:35.434Z,74.2
2016-08-15T01:20:46.671Z,73.8
2016-08-15T01:20:57.914Z,73.6
2016-08-15T01:21:09.149Z,74.2
2016-08-15T01:21:20.391Z,73.5
2016-08-15T01:21:31.634Z,74.2
2016-08-15T01:21:42.872Z,73.7
2016-08-15T01:21:54.114Z,74.1
2016-08-15T01:22:05.356Z,73.4
2016-08-15T01:22:16.597Z,73.5
2016-08-15T01:22:27.108Z,73.8
2016-08-15T01:22:38.348Z,73.6
2016-08-15T01:22:49.583Z,74.1
2016-08-15T01:23:00.822Z,74.1
2016-08-15T01:23:12.063Z,73.5
2016-08-15T01:23:23.301Z,73.8
2016-08-15T01:23:34.538Z,73.7
2016-08-15T01:23:45.780Z,74.2
2016-08-15T01:23:57.024Z,73.4
2016-08-15T01:24:08.263Z,73.7
2016-08-15T01:24:18.776Z,73.7
2016-08-15T01:24:30.019Z,73.5
2016-08-15T01:24:41.260Z,73.6
2016-08-15T01:24:52.501Z,74.1
2016-08-15T01:25:03.739Z,73.8
2016-08-15T01:25:14.981Z,73.8
2016-08-15T01:25:26.221Z,73.5
2016-08-15T01:25:37.468Z,73.6
2016-08-15T01:25:48.704Z,73.8
2016-08-15T01:25:59.944Z,73.8
2016-08-15T01:26:11.185Z,73.6
2016-08-15T01:26:22.425Z,73.8
2016-08-15T01:26:33.662Z,73.9
2016-08-15T01:26:44.902Z,73.5
2016-08-15T01:26:54.676Z,74.2
2016-08-15T01:27:05.917Z,73.7
2016-08-15T01:27:17.155Z,74
2016-08-15T01:27:28.405Z,73.9
2016-08-15T01:27:39.648Z,73.7
2016-08-15T01:27:50.891Z,73.7
2016-08-15T01:28:02.131Z,73.6
2016-08-15T01:28:13.370Z,73.8
2016-08-15T01:28:23.883Z,73.6
2016-08-15T01:28:35.120Z,74
2016-08-15T01:28:46.363Z,73.6
2016-08-15T01:28:57.599Z,73.7
2016-08-15T01:29:08.836Z,73.4
2016-08-15T01:29:19.351Z,73.5
2016-08-15T01:29:30.590Z,73.7
2016-08-15T01:29:41.831Z,73.4
2016-08-15T01:29:53.070Z,73.5
2016-08-15T01:30:04.308Z,73.3
2016-08-15T01:30:14.819Z,73.4
2016-08-15T01:30:26.063Z,73.6
2016-08-15T01:30:37.304Z,74.1
2016-08-15T01:30:48.544Z,73.7
2016-08-15T01:30:59.055Z,73.6
2016-08-15T01:31:09.574Z,73.5
2016-08-15T01:31:20.814Z,73.7
2016-08-15T01:31:32.058Z,73.7
2016-08-15T01:31:43.295Z,74.2
2016-08-15T01:31:55.612Z,73.6
2016-08-15T01:32:06.849Z,73.6
2016-08-15T01:32:18.092Z,73.4
2016-08-15T01:32:29.331Z,73.7
2016-08-15T01:32:40.571Z,73.5
2016-08-15T01:32:51.813Z,73.7
2016-08-15T01:33:03.062Z,73.5
2016-08-15T01:33:14.298Z,73.3
2016-08-15T01:33:25.539Z,73.5
2016-08-15T01:33:36.782Z,73.7
2016-08-15T01:33:48.027Z,73.5
2016-08-15T01:33:59.264Z,73.6
2016-08-15T01:34:10.503Z,73.4
2016-08-15T01:34:21.744Z,73.4
2016-08-15T01:34:32.252Z,73.3
2016-08-15T01:34:43.492Z,73.7
2016-08-15T01:34:54.003Z,73.5
2016-08-15T01:35:05.240Z,73.7
2016-08-15T01:35:16.484Z,73.6
2016-08-15T01:35:26.990Z,73.4
2016-08-15T01:35:38.231Z,73.4
2016-08-15T01:35:49.469Z,73.6
2016-08-15T01:36:00.708Z,73.4
2016-08-15T01:36:11.950Z,73.1
2016-08-15T01:36:23.191Z,72.9
2016-08-15T01:36:34.430Z,73.3
2016-08-15T01:36:45.676Z,73.3
2016-08-15T01:36:56.916Z,73.8
2016-08-15T01:37:07.431Z,73.7
2016-08-15T01:37:18.673Z,73.4
2016-08-15T01:37:29.922Z,73.1
2016-08-15T01:37:41.161Z,73.1
2016-08-15T01:37:52.400Z,73.3
2016-08-15T01:38:03.644Z,73.3
2016-08-15T01:38:14.884Z,73.3
2016-08-15T01:38:26.124Z,73.7
2016-08-15T01:38:37.365Z,73.5
2016-08-15T01:38:48.604Z,73.4
2016-08-15T01:38:59.845Z,73.7
2016-08-15T01:39:11.088Z,73.7
2016-08-15T01:39:22.343Z,73.6
2016-08-15T01:39:32.850Z,73.3
2016-08-15T01:39:44.090Z,73.2
2016-08-15T01:39:55.335Z,73.2
2016-08-15T01:40:06.581Z,73
2016-08-15T01:40:17.817Z,73.3
2016-08-15T01:40:29.055Z,73.4
2016-08-15T01:40:40.301Z,73.7
2016-08-15T01:40:51.540Z,73.3
2016-08-15T01:41:02.780Z,73.4
2016-08-15T01:41:13.286Z,73.2
2016-08-15T01:41:24.525Z,73.7
2016-08-15T01:41:35.764Z,73.6
2016-08-15T01:41:47.006Z,73.7
2016-08-15T01:41:58.252Z,73.5
2016-08-15T01:42:09.492Z,73.8
2016-08-15T01:42:20.731Z,73.7
2016-08-15T01:42:31.975Z,73.6
2016-08-15T01:42:43.216Z,73.6
2016-08-15T01:42:54.454Z,73.4
2016-08-15T01:43:05.699Z,73.8
2016-08-15T01:43:16.939Z,73.6
2016-08-15T01:43:28.181Z,73.5
2016-08-15T01:43:39.418Z,73.6
2016-08-15T01:43:50.659Z,73.5
2016-08-15T01:44:01.902Z,73.3
2016-08-15T01:44:13.142Z,73.5
2016-08-15T01:44:24.383Z,73.6
2016-08-15T01:44:34.894Z,73.6
2016-08-15T01:44:47.930Z,73.6
2016-08-15T01:44:59.180Z,73.8
2016-08-15T01:45:09.681Z,73.8
2016-08-15T01:45:20.196Z,73.7
2016-08-15T01:45:30.700Z,73.4
2016-08-15T01:45:41.949Z,73.6
2016-08-15T01:45:53.187Z,73.5
2016-08-15T01:46:04.430Z,73.6
2016-08-15T01:46:15.675Z,73.7
2016-08-15T01:46:26.911Z,73.4
2016-08-15T01:46:37.427Z,73.2
2016-08-15T01:46:48.672Z,73.2
2016-08-15T01:46:59.179Z,73.2
2016-08-15T01:47:09.688Z,73.3
2016-08-15T01:47:20.942Z,73.2
2016-08-15T01:47:32.186Z,73.1
2016-08-15T01:47:43.431Z,73.1
2016-08-15T01:47:54.671Z,73.1
2016-08-15T01:48:05.907Z,73.3
2016-08-15T01:48:17.144Z,73.2
2016-08-15T01:48:27.648Z,73.5
2016-08-15T01:48:38.895Z,73.7
2016-08-15T01:48:50.132Z,73.4
2016-08-15T01:49:01.377Z,73.6
2016-08-15T01:49:12.619Z,73.7
2016-08-15T01:49:23.130Z,73.8
2016-08-15T01:49:34.368Z,73.3
2016-08-15T01:49:44.880Z,73.7
2016-08-15T01:49:56.120Z,73
2016-08-15T01:50:07.356Z,73.3
2016-08-15T01:50:18.596Z,72.9
2016-08-15T01:50:29.837Z,73.1
2016-08-15T01:50:40.346Z,73.1
2016-08-15T01:50:51.586Z,73.2
2016-08-15T01:51:02.822Z,73.1
2016-08-15T01:51:14.059Z,73.3
2016-08-15T01:51:25.303Z,73.2
2016-08-15T01:51:36.545Z,73.3
2016-08-15T01:51:47.782Z,73.7
2016-08-15T01:51:59.022Z,73.6
2016-08-15T01:52:10.259Z,73.2
2016-08-15T01:52:20.769Z,73.1
2016-08-15T01:52:32.016Z,73.4
2016-08-15T01:52:43.254Z,73.2
2016-08-15T01:52:53.761Z,73.3
2016-08-15T01:53:04.269Z,73.1
2016-08-15T01:53:14.783Z,73.1
2016-08-15T01:53:26.034Z,73
2016-08-15T01:53:36.544Z,73.4
2016-08-15T01:53:47.782Z,73.4
2016-08-15T01:53:59.030Z,73.6
2016-08-15T01:54:10.273Z,73.4
2016-08-15T01:54:21.510Z,73.5
2016-08-15T01:54:32.755Z,73.5
2016-08-15T01:54:43.997Z,73.3
2016-08-15T01:54:55.242Z,73.3
2016-08-15T01:55:06.477Z,73.5
2016-08-15T01:55:17.717Z,73.5
2016-08-15T01:55:28.221Z,73.5
2016-08-15T01:55:39.462Z,73.5
2016-08-15T01:55:50.700Z,73.6
2016-08-15T01:56:01.948Z,73.2
2016-08-15T01:56:13.189Z,73.1
2016-08-15T01:56:24.424Z,72.7
2016-08-15T01:56:35.666Z,73.4
2016-08-15T01:56:46.907Z,73.6
2016-08-15T01:56:58.144Z,73.5
2016-08-15T01:57:09.390Z,73.2
2016-08-15T01:57:20.624Z,73.3
2016-08-15T01:57:31.861Z,73.5
2016-08-15T01:57:43.101Z,73.4
2016-08-15T01:57:54.349Z,73.2
2016-08-15T01:58:05.602Z,73.2
2016-08-15T01:58:16.831Z,73.1
2016-08-15T01:58:28.071Z,73.3
2016-08-15T01:58:39.312Z,73.2
2016-08-15T01:58:49.824Z,73.4
2016-08-15T01:59:01.066Z,73.5
2016-08-15T01:59:11.580Z,73.6
2016-08-15T01:59:22.819Z,73.5
2016-08-15T01:59:34.058Z,73.4
2016-08-15T01:59:44.574Z,73.2
2016-08-15T01:59:55.816Z,73.3
2016-08-15T02:00:07.057Z,72.9
2016-08-15T02:00:18.301Z,73
2016-08-15T02:00:29.539Z,73.4
2016-08-15T02:00:40.779Z,72.9
2016-08-15T02:00:52.018Z,73.1
2016-08-15T02:01:03.260Z,72.6
2016-08-15T02:01:14.499Z,72.7
2016-08-15T02:01:25.745Z,72.9
2016-08-15T02:01:36.982Z,72.6
2016-08-15T02:01:48.227Z,72.9
2016-08-15T02:01:59.466Z,73.1
2016-08-15T02:02:10.706Z,72.9
2016-08-15T02:02:21.943Z,73.1
2016-08-15T02:02:33.188Z,72.9
2016-08-15T02:02:44.428Z,73.1
2016-08-15T02:02:54.933Z,73.1
2016-08-15T02:03:05.448Z,72.8
2016-08-15T02:03:18.479Z,72.9
2016-08-15T02:03:28.987Z,73
2016-08-15T02:03:40.227Z,72.8
2016-08-15T02:03:51.470Z,72.9
2016-08-15T02:04:02.710Z,72.9
2016-08-15T02:04:13.220Z,73
2016-08-15T02:04:24.467Z,73.2
2016-08-15T02:04:35.711Z,73.1
2016-08-15T02:04:46.948Z,72.8
2016-08-15T02:04:58.190Z,72.8
2016-08-15T02:05:08.707Z,72.9
2016-08-15T02:05:19.947Z,72.7
2016-08-15T02:05:31.198Z,72.8
2016-08-15T02:05:43.487Z,73
2016-08-15T02:05:54.727Z,72.9
2016-08-15T02:06:05.968Z,73
2016-08-15T02:06:17.211Z,73
2016-08-15T02:06:28.448Z,72.9
2016-08-15T02:06:39.689Z,72.7
2016-08-15T02:06:51.133Z,72.9
2016-08-15T02:07:01.642Z,73
2016-08-15T02:07:12.885Z,73.4
2016-08-15T02:07:24.125Z,73.2
2016-08-15T02:07:35.364Z,73
2016-08-15T02:07:46.613Z,73.3
2016-08-15T02:07:57.850Z,72.9
2016-08-15T02:08:08.358Z,73.3
2016-08-15T02:08:19.608Z,73.2
2016-08-15T02:08:30.850Z,73.4
2016-08-15T02:08:42.095Z,73.5
2016-08-15T02:08:53.337Z,72.8
2016-08-15T02:09:04.580Z,73.2
2016-08-15T02:09:15.822Z,73.1
2016-08-15T02:09:27.059Z,72.9
2016-08-15T02:09:36.841Z,73.2
2016-08-15T02:09:48.083Z,73.4
2016-08-15T02:09:59.321Z,73.3
2016-08-15T02:10:09.831Z,73.4
2016-08-15T02:10:21.073Z,73.3
2016-08-15T02:10:32.307Z,72.9
2016-08-15T02:10:42.821Z,72.9
2016-08-15T02:10:54.062Z,73.1
2016-08-15T02:11:05.305Z,73.1
2016-08-15T02:11:16.547Z,72.9
2016-08-15T02:11:27.785Z,73
2016-08-15T02:11:39.023Z,73.2
2016-08-15T02:11:50.260Z,73
2016-08-15T02:12:01.503Z,72.9
2016-08-15T02:12:12.747Z,73
2016-08-15T02:12:23.989Z,72.8
2016-08-15T02:12:35.226Z,73.2
2016-08-15T02:12:46.466Z,73.1
2016-08-15T02:12:56.987Z,73.3
2016-08-15T02:13:08.228Z,73.1
2016-08-15T02:13:19.469Z,73.3
2016-08-15T02:13:30.712Z,73.1
2016-08-15T02:13:41.958Z,73
2016-08-15T02:13:53.190Z,72.7
2016-08-15T02:14:04.429Z,73
2016-08-15T02:14:15.672Z,72.8
2016-08-15T02:14:26.912Z,73.2
2016-08-15T02:14:38.152Z,73.2
2016-08-15T02:14:49.392Z,73
2016-08-15T02:15:00.629Z,73.3
2016-08-15T02:15:11.879Z,73.1
2016-08-15T02:15:22.388Z,73.2
2016-08-15T02:15:33.627Z,73.5
2016-08-15T02:15:44.868Z,73.2
2016-08-15T02:15:56.106Z,73.2
2016-08-15T02:16:06.616Z,73.3
2016-08-15T02:16:17.130Z,72.8
2016-08-15T02:16:28.367Z,73.3
2016-08-15T02:16:38.873Z,73.3
2016-08-15T02:16:50.115Z,73.2
2016-08-15T02:17:01.362Z,73.5
2016-08-15T02:17:12.604Z,73.3
2016-08-15T02:17:23.846Z,73.2
2016-08-15T02:17:35.087Z,73.1
2016-08-15T02:17:45.590Z,72.8
2016-08-15T02:17:56.106Z,73.1
2016-08-15T02:18:07.346Z,73.1
2016-08-15T02:18:18.586Z,72.7
2016-08-15T02:18:29.831Z,73.1
2016-08-15T02:18:41.071Z,72.7
2016-08-15T02:18:52.310Z,73
2016-08-15T02:19:03.548Z,72.8
2016-08-15T02:19:14.786Z,73.1
2016-08-15T02:19:26.035Z,73.2
2016-08-15T02:19:37.279Z,73.1
2016-08-15T02:19:48.523Z,73.2
2016-08-15T02:19:59.766Z,72.9
2016-08-15T02:20:11.010Z,72.8
2016-08-15T02:20:21.515Z,72.9
2016-08-15T02:20:32.756Z,72.8
2016-08-15T02:20:43.264Z,72.7
2016-08-15T02:20:54.504Z,73.1
2016-08-15T02:21:05.744Z,73.1
2016-08-15T02:21:16.993Z,72.8
2016-08-15T02:21:28.221Z,72.8
2016-08-15T02:21:39.467Z,73.4
2016-08-15T02:21:50.701Z,72.8
2016-08-15T02:22:01.940Z,73.2
2016-08-15T02:22:13.186Z,72.9
2016-08-15T02:22:24.429Z,72.8
2016-08-15T02:22:35.675Z,72.8
2016-08-15T02:22:46.916Z,72.9
2016-08-15T02:22:58.158Z,73
2016-08-15T02:23:09.398Z,72.7
2016-08-15T02:23:20.635Z,73
2016-08-15T02:23:31.871Z,72.9
2016-08-15T02:23:42.385Z,72.8
2016-08-15T02:23:52.898Z,73
2016-08-15T02:24:04.140Z,72.9
2016-08-15T02:24:15.378Z,73
2016-08-15T02:24:26.624Z,73.4
2016-08-15T02:24:37.861Z,73.1
2016-08-15T02:24:48.370Z,73.2
2016-08-15T02:24:59.606Z,72.7
2016-08-15T02:25:10.848Z,72.9
2016-08-15T02:25:22.083Z,73.1
2016-08-15T02:25:33.328Z,72.7
2016-08-15T02:25:44.572Z,72.7
2016-08-15T02:25:55.813Z,72.7
2016-08-15T02:26:07.053Z,72.8
2016-08-15T02:26:17.563Z,72.9
2016-08-15T02:26:28.073Z,72.8
2016-08-15T02:26:38.584Z,72.7
2016-08-15T02:26:49.826Z,73
2016-08-15T02:27:00.338Z,72.8
2016-08-15T02:27:11.577Z,72.9
2016-08-15T02:27:22.818Z,72.8
2016-08-15T02:27:33.322Z,72.7
2016-08-15T02:27:43.835Z,72.9
2016-08-15T02:27:55.072Z,73.1
2016-08-15T02:28:06.313Z,73.4
2016-08-15T02:28:17.550Z,73.1
2016-08-15T02:28:28.792Z,73.3
2016-08-15T02:28:40.038Z,73.1
2016-08-15T02:28:50.538Z,72.7
2016-08-15T02:29:01.041Z,73
2016-08-15T02:29:12.289Z,73.1